Active alerts

Hennepin
  Details for Hennepin River Flood Warning  +1 additional alert


weather webcam more information weather webcam


Thunder radar more information blitzortung!


Rain radar more information rain snow radar


Visit our other weather sites:

Template documentation
and downloads

And another site


Weather Underground History page Text

Daily Summary for April 22, 2019 Units:  English    Metric   Both
« Previous Day
Next Day »
Daily Weekly Monthly Yearly Custom
  Current: High: Low: Average:
Temperature: 43.2 °F TemperatureF °F 43.2 °F 45.8 °F
Dew Point: 39.6 °F DewpointF °F 39.6 °F 42.4 °F
Humidity: 87 % Humidity % 78 % 88 %
Wind Speed: 1.0 mph WindSpeedMPH mph 0.0 mph 5 mph
Wind Gust: 10.0 mph WindSpeedGustMPH mph - -
Wind:NE - - ESE
Pressure: 30.12 in PressureIn in 29.87 in -
Precipitation: 0.42 in      
Historical Graphs
 
 
Tabular Data for April 22, 2019
Time Temperature Dew Point Pressure Wind Wind Speed Wind Gust Humidity Rainfall Rate (Hourly)
TemperatureF °F DewpointF °F PressureIn in Calm     Humidity % HourlyPrecipIn in
00:04 48.9 °F 42.3 °F 29.91 in NE 4.0 mph 12.0 mph 78 % 0.00 in
00:09 48.8 °F 42.2 °F 29.91 in ENE 5.0 mph 12.0 mph 78 % 0.00 in
00:14 48.7 °F 42.1 °F 29.91 in ENE 5.0 mph 10.0 mph 78 % 0.00 in
00:19 48.6 °F 42.0 °F 29.91 in ENE 5.0 mph 15.0 mph 78 % 0.00 in
00:24 48.6 °F 42.0 °F 29.91 in ENE 3.0 mph 15.0 mph 78 % 0.00 in
00:29 48.6 °F 42.0 °F 29.91 in NE 6.0 mph 8.0 mph 78 % 0.00 in
00:34 48.6 °F 42.4 °F 29.91 in NNE 5.0 mph 11.0 mph 79 % 0.00 in
00:39 48.6 °F 42.0 °F 29.91 in ENE 3.0 mph 12.0 mph 78 % 0.00 in
00:44 48.5 °F 42.0 °F 29.90 in NE 4.0 mph 12.0 mph 78 % 0.00 in
00:49 48.5 °F 42.0 °F 29.91 in NE 1.0 mph 10.0 mph 78 % 0.00 in
00:54 48.4 °F 42.2 °F 29.90 in NNE 5.0 mph 10.0 mph 79 % 0.00 in
00:59 48.4 °F 42.2 °F 29.91 in NE 2.0 mph 11.0 mph 79 % 0.00 in
01:04 48.4 °F 42.2 °F 29.90 in ENE 3.0 mph 11.0 mph 79 % 0.00 in
01:09 48.4 °F 42.2 °F 29.91 in NE 2.0 mph 9.0 mph 79 % 0.00 in
01:14 48.4 °F 42.2 °F 29.91 in NNE 3.0 mph 9.0 mph 79 % 0.00 in
01:19 48.5 °F 42.3 °F 29.91 in NNE 7.0 mph 11.0 mph 79 % 0.00 in
01:24 48.6 °F 42.0 °F 29.91 in NE 5.0 mph 15.0 mph 78 % 0.00 in
01:29 48.6 °F 42.0 °F 29.91 in NE 4.0 mph 15.0 mph 78 % 0.00 in
01:34 48.7 °F 42.1 °F 29.91 in NE 3.0 mph 14.0 mph 78 % 0.00 in
01:39 48.7 °F 42.1 °F 29.91 in NNE 4.0 mph 14.0 mph 78 % 0.00 in
01:44 48.7 °F 42.1 °F 29.91 in NE 4.0 mph 14.0 mph 78 % 0.00 in
01:50 48.6 °F 42.4 °F 29.92 in North 8.0 mph 13.0 mph 79 % 0.01 in
01:54 48.3 °F 42.7 °F 29.92 in NE 11.0 mph 13.0 mph 81 % 0.01 in
01:59 48.1 °F 42.5 °F 29.93 in North 4.0 mph 13.0 mph 81 % 0.01 in
02:04 47.9 °F 42.7 °F 29.93 in NNE 6.0 mph 12.0 mph 82 % 0.01 in
02:09 47.7 °F 42.5 °F 29.93 in NE 2.0 mph 13.0 mph 82 % 0.01 in
02:14 47.6 °F 42.1 °F 29.93 in NNE 8.0 mph 15.0 mph 81 % 0.01 in
02:19 47.5 °F 42.0 °F 29.92 in NE 7.0 mph 16.0 mph 81 % 0.01 in
02:24 47.5 °F 42.3 °F 29.92 in NNE 4.0 mph 16.0 mph 82 % 0.01 in
02:29 47.4 °F 42.2 °F 29.92 in ESE 2.0 mph 15.0 mph 82 % 0.01 in
02:34 47.4 °F 42.2 °F 29.92 in NE 4.0 mph 13.0 mph 82 % 0.01 in
02:39 47.3 °F 42.1 °F 29.92 in ENE 5.0 mph 13.0 mph 82 % 0.01 in
02:44 47.2 °F 42.0 °F 29.92 in NE 5.0 mph 13.0 mph 82 % 0.01 in
02:49 47.1 °F 41.9 °F 29.92 in ENE 7.0 mph 13.0 mph 82 % 0.00 in
02:54 47.0 °F 41.8 °F 29.92 in ENE 5.0 mph 14.0 mph 82 % 0.00 in
02:59 46.9 °F 41.7 °F 29.92 in NNE 13.0 mph 14.0 mph 82 % 0.00 in
03:04 46.9 °F 42.0 °F 29.92 in ENE 3.0 mph 14.0 mph 83 % 0.00 in
03:09 46.8 °F 41.9 °F 29.92 in ENE 4.0 mph 14.0 mph 83 % 0.00 in
03:14 46.7 °F 42.1 °F 29.92 in North 3.0 mph 11.0 mph 84 % 0.00 in
03:19 46.6 °F 42.0 °F 29.92 in NE 2.0 mph 11.0 mph 84 % 0.00 in
03:24 46.6 °F 42.0 °F 29.93 in NNE 5.0 mph 11.0 mph 84 % 0.00 in
03:29 46.5 °F 41.9 °F 29.92 in North 4.0 mph 13.0 mph 84 % 0.00 in
03:34 46.4 °F 41.8 °F 29.92 in NE 5.0 mph 13.0 mph 84 % 0.00 in
03:39 46.3 °F 42.0 °F 29.93 in NE 4.0 mph 11.0 mph 85 % 0.00 in
03:44 46.3 °F 42.0 °F 29.93 in NE 4.0 mph 11.0 mph 85 % 0.00 in
03:49 46.3 °F 42.0 °F 29.92 in NNE 2.0 mph 11.0 mph 85 % 0.00 in
03:54 46.2 °F 41.9 °F 29.93 in NE 2.0 mph 11.0 mph 85 % 0.00 in
03:59 46.2 °F 41.9 °F 29.93 in NE 3.0 mph 11.0 mph 85 % 0.00 in
04:05 46.3 °F 42.3 °F 29.93 in NE 9.0 mph 12.0 mph 86 % 0.00 in
04:09 46.3 °F 42.0 °F 29.93 in North 4.0 mph 13.0 mph 85 % 0.00 in
04:14 46.3 °F 42.0 °F 29.93 in ENE 4.0 mph 13.0 mph 85 % 0.00 in
04:19 46.4 °F 42.1 °F 29.93 in ENE 2.0 mph 12.0 mph 85 % 0.00 in
04:24 46.4 °F 42.1 °F 29.92 in NE 5.0 mph 12.0 mph 85 % 0.00 in
04:29 46.4 °F 42.1 °F 29.93 in NE 5.0 mph 11.0 mph 85 % 0.00 in
04:34 46.5 °F 42.2 °F 29.93 in NNE 2.0 mph 11.0 mph 85 % 0.00 in
04:39 46.5 °F 42.5 °F 29.92 in NE 3.0 mph 10.0 mph 86 % 0.00 in
04:44 46.5 °F 42.2 °F 29.92 in NNE 1.0 mph 11.0 mph 85 % 0.00 in
04:50 46.5 °F 42.5 °F 29.91 in North 4.0 mph 11.0 mph 86 % 0.00 in
04:54 46.5 °F 42.5 °F 29.92 in ENE 4.0 mph 12.0 mph 86 % 0.00 in
04:59 46.4 °F 42.4 °F 29.92 in ENE 7.0 mph 12.0 mph 86 % 0.00 in
05:04 46.4 °F 42.4 °F 29.91 in NE 3.0 mph 9.0 mph 86 % 0.00 in
05:09 46.3 °F 42.3 °F 29.91 in NE 1.0 mph 10.0 mph 86 % 0.00 in
05:14 46.3 °F 42.3 °F 29.91 in NE 3.0 mph 10.0 mph 86 % 0.00 in
05:19 46.2 °F 42.2 °F 29.91 in North 3.0 mph 10.0 mph 86 % 0.00 in
05:24 46.1 °F 42.4 °F 29.91 in NE 3.0 mph 10.0 mph 87 % 0.00 in
05:29 46.0 °F 42.3 °F 29.91 in NE 4.0 mph 10.0 mph 87 % 0.00 in
05:34 46.0 °F 42.3 °F 29.91 in NE 1.0 mph 10.0 mph 87 % 0.00 in
05:39 46.0 °F 42.3 °F 29.92 in NNE 2.0 mph 10.0 mph 87 % 0.00 in
05:44 46.0 °F 42.3 °F 29.92 in NE 3.0 mph 11.0 mph 87 % 0.00 in
05:49 46.0 °F 42.3 °F 29.92 in NE 4.0 mph 11.0 mph 87 % 0.00 in
05:54 46.0 °F 42.3 °F 29.92 in ENE 3.0 mph 7.0 mph 87 % 0.00 in
05:59 46.0 °F 42.6 °F 29.91 in NE 2.0 mph 6.0 mph 88 % 0.00 in
06:04 46.0 °F 42.6 °F 29.93 in North 3.0 mph 10.0 mph 88 % 0.00 in
06:09 46.0 °F 42.6 °F 29.95 in WNW 4.0 mph 10.0 mph 88 % 0.00 in
06:14 46.1 °F 42.7 °F 29.98 in WSW 2.0 mph 11.0 mph 88 % 0.00 in
06:20 46.2 °F 42.8 °F 30.00 in Calm   11.0 mph 88 % 0.00 in
06:24 46.3 °F 42.6 °F 30.01 in Calm   7.0 mph 87 % 0.00 in
06:29 46.3 °F 42.9 °F 29.97 in NNE 5.0 mph 9.0 mph 88 % 0.02 in
06:34 46.1 °F 42.7 °F 29.95 in North 8.0 mph 11.0 mph 88 % 0.05 in
06:39 45.7 °F 42.6 °F 29.90 in NE 9.0 mph 21.0 mph 89 % 0.08 in
06:44 45.2 °F 42.4 °F 29.87 in ENE 13.0 mph 22.0 mph 90 % 0.16 in
06:49 45.0 °F 42.2 °F 29.88 in NNW 8.0 mph 25.0 mph 90 % 0.17 in
06:54 44.9 °F 42.4 °F 29.89 in ENE 5.0 mph 25.0 mph 91 % 0.18 in
06:59 44.9 °F 42.4 °F 29.93 in Calm   17.0 mph 91 % 0.18 in
07:04 44.9 °F 42.4 °F 29.93 in NW 3.0 mph 6.0 mph 91 % 0.18 in
07:09 45.0 °F 42.5 °F 29.94 in West 2.0 mph 3.0 mph 91 % 0.18 in
07:14 45.1 °F 42.9 °F 29.94 in NW 3.0 mph 3.0 mph 92 % 0.18 in
07:19 45.0 °F 42.8 °F 29.95 in NW 2.0 mph 3.0 mph 92 % 0.18 in
07:24 45.1 °F 42.9 °F 29.97 in NW 2.0 mph 3.0 mph 92 % 0.18 in
07:29 45.2 °F 43.0 °F 29.98 in NW 1.0 mph 3.0 mph 92 % 0.16 in
07:34 45.3 °F 43.1 °F 29.96 in NNE 3.0 mph 5.0 mph 92 % 0.13 in
07:39 45.3 °F 43.1 °F 29.94 in NE 4.0 mph 11.0 mph 92 % 0.11 in
07:44 45.3 °F 43.1 °F 29.93 in NE 4.0 mph 11.0 mph 92 % 0.04 in
07:49 45.2 °F 43.0 °F 29.94 in North 11.0 mph 11.0 mph 92 % 0.04 in
07:54 45.2 °F 43.0 °F 29.95 in Calm   11.0 mph 92 % 0.04 in
07:59 45.2 °F 43.0 °F 29.95 in NNE 5.0 mph 11.0 mph 92 % 0.04 in
08:04 45.2 °F 43.0 °F 29.93 in NNE 9.0 mph 14.0 mph 92 % 0.04 in
08:09 45.2 °F 43.0 °F 29.93 in NNE 4.0 mph 17.0 mph 92 % 0.04 in
08:14 45.3 °F 43.1 °F 29.91 in NE 3.0 mph 17.0 mph 92 % 0.05 in
08:19 45.3 °F 43.1 °F 29.91 in ENE 4.0 mph 12.0 mph 92 % 0.05 in
08:24 45.3 °F 43.1 °F 29.92 in East 3.0 mph 11.0 mph 92 % 0.05 in
08:29 45.4 °F 43.2 °F 29.92 in East 7.0 mph 11.0 mph 92 % 0.06 in
08:35 45.4 °F 43.2 °F 29.93 in NE 3.0 mph 10.0 mph 92 % 0.06 in
08:39 45.4 °F 43.2 °F 29.92 in NE 5.0 mph 10.0 mph 92 % 0.05 in
08:44 45.5 °F 43.6 °F 29.92 in East 4.0 mph 9.0 mph 93 % 0.04 in
08:49 45.5 °F 43.6 °F 29.92 in ENE 4.0 mph 11.0 mph 93 % 0.04 in
08:54 45.5 °F 43.6 °F 29.91 in ENE 3.0 mph 11.0 mph 93 % 0.04 in
08:59 45.6 °F 43.7 °F 29.93 in ENE 9.0 mph 12.0 mph 93 % 0.04 in
09:04 45.6 °F 43.7 °F 29.94 in ENE 5.0 mph 12.0 mph 93 % 0.04 in
09:09 45.7 °F 43.8 °F 29.95 in ESE 3.0 mph 9.0 mph 93 % 0.04 in
09:14 45.8 °F 43.6 °F 29.96 in ENE 2.0 mph 9.0 mph 92 % 0.03 in
09:19 45.8 °F 43.9 °F 29.96 in NNE 5.0 mph 6.0 mph 93 % 0.03 in
09:24 45.8 °F 43.6 °F 29.96 in North 6.0 mph 6.0 mph 92 % 0.03 in
09:29 45.9 °F 43.7 °F 29.98 in NNE 3.0 mph 6.0 mph 92 % 0.02 in
09:34 45.9 °F 43.7 °F 29.97 in NNE 2.0 mph 6.0 mph 92 % 0.02 in
09:39 46.0 °F 43.8 °F 29.95 in NNE 3.0 mph 9.0 mph 92 % 0.03 in
09:44 46.0 °F 43.8 °F 29.92 in North 5.0 mph 16.0 mph 92 % 0.03 in
09:49 46.0 °F 43.8 °F 29.93 in ESE 6.0 mph 16.0 mph 92 % 0.03 in
09:54 45.9 °F 43.7 °F 29.95 in NE 4.0 mph 12.0 mph 92 % 0.02 in
09:59 45.9 °F 43.7 °F 29.95 in NNE 4.0 mph 10.0 mph 92 % 0.03 in
10:05 46.0 °F 43.8 °F 29.96 in North 8.0 mph 10.0 mph 92 % 0.03 in
10:09 46.0 °F 43.8 °F 29.98 in WNW 3.0 mph 9.0 mph 92 % 0.03 in
10:14 46.2 °F 44.3 °F 29.99 in WNW 4.0 mph 9.0 mph 93 % 0.03 in
10:19 46.2 °F 44.0 °F 30.00 in NNW 1.0 mph 5.0 mph 92 % 0.03 in
10:24 46.1 °F 43.9 °F 30.00 in NNW 1.0 mph 4.0 mph 92 % 0.03 in
10:29 46.1 °F 43.9 °F 30.01 in Calm   3.0 mph 92 % 0.03 in
10:34 46.0 °F 43.8 °F 30.01 in North 1.0 mph 3.0 mph 92 % 0.03 in
10:39 46.0 °F 43.8 °F 30.00 in NE 3.0 mph 5.0 mph 92 % 0.02 in
10:44 46.0 °F 43.8 °F 29.98 in NNE 8.0 mph 8.0 mph 92 % 0.02 in
10:50 46.0 °F 43.8 °F 29.97 in North 5.0 mph 14.0 mph 92 % 0.01 in
10:54 46.0 °F 43.8 °F 29.97 in NE 6.0 mph 14.0 mph 92 % 0.00 in
10:59 46.1 °F 44.2 °F 29.96 in NE 3.0 mph 11.0 mph 93 % 0.01 in
11:04 46.1 °F 43.9 °F 29.95 in NE 5.0 mph 12.0 mph 92 % 0.01 in
11:09 46.1 °F 43.9 °F 29.95 in ENE 3.0 mph 13.0 mph 92 % 0.01 in
11:14 46.1 °F 43.9 °F 29.94 in NE 5.0 mph 13.0 mph 92 % 0.01 in
11:19 46.0 °F 43.8 °F 29.94 in NE 5.0 mph 20.0 mph 92 % 0.01 in
11:24 45.9 °F 43.7 °F 29.94 in NNE 7.0 mph 20.0 mph 92 % 0.01 in
11:29 45.9 °F 43.7 °F 29.95 in NE 6.0 mph 17.0 mph 92 % 0.01 in
11:35 45.8 °F 43.6 °F 29.95 in ENE 6.0 mph 17.0 mph 92 % 0.01 in
11:39 45.8 °F 43.6 °F 29.93 in NE 7.0 mph 15.0 mph 92 % 0.01 in
11:44 45.8 °F 43.6 °F 29.92 in NE 5.0 mph 15.0 mph 92 % 0.01 in
11:49 45.9 °F 43.7 °F 29.92 in NNE 14.0 mph 20.0 mph 92 % 0.01 in
11:54 45.9 °F 43.7 °F 29.93 in NE 5.0 mph 20.0 mph 92 % 0.01 in
11:59 46.0 °F 43.8 °F 29.93 in NNW 10.0 mph 16.0 mph 92 % 0.00 in
12:04 46.0 °F 43.8 °F 29.95 in NNE 5.0 mph 15.0 mph 92 % 0.01 in
12:09 46.0 °F 43.8 °F 29.96 in North 8.0 mph 15.0 mph 92 % 0.01 in
12:14 46.0 °F 43.5 °F 29.97 in North 4.0 mph 15.0 mph 91 % 0.01 in
12:20 46.1 °F 43.6 °F 29.97 in NNE 9.0 mph 13.0 mph 91 % 0.01 in
12:24 46.0 °F 43.5 °F 29.97 in NNE 5.0 mph 12.0 mph 91 % 0.01 in
12:29 46.2 °F 43.7 °F 29.97 in NNE 4.0 mph 15.0 mph 91 % 0.01 in
12:34 46.4 °F 44.2 °F 29.97 in NNE 8.0 mph 15.0 mph 92 % 0.01 in
12:39 46.4 °F 43.9 °F 29.97 in ENE 7.0 mph 15.0 mph 91 % 0.01 in
12:44 46.6 °F 44.1 °F 29.97 in NE 6.0 mph 15.0 mph 91 % 0.01 in
12:49 46.8 °F 44.3 °F 29.97 in ENE 4.0 mph 19.0 mph 91 % 0.01 in
12:54 46.9 °F 44.4 °F 29.97 in NE 6.0 mph 19.0 mph 91 % 0.01 in
12:59 47.1 °F 44.3 °F 29.98 in NE 3.0 mph 17.0 mph 90 % 0.01 in
13:05 47.1 °F 44.3 °F 29.98 in NE 6.0 mph 17.0 mph 90 % 0.00 in
13:09 47.0 °F 44.2 °F 29.98 in NNE 4.0 mph 15.0 mph 90 % 0.00 in
13:14 46.9 °F 43.8 °F 29.98 in NE 4.0 mph 15.0 mph 89 % 0.00 in
13:19 46.9 °F 43.8 °F 29.98 in ENE 6.0 mph 14.0 mph 89 % 0.00 in
13:24 46.8 °F 43.7 °F 29.99 in NE 5.0 mph 17.0 mph 89 % 0.00 in
13:29 46.8 °F 43.7 °F 29.99 in North 5.0 mph 17.0 mph 89 % 0.00 in
13:34 46.7 °F 43.6 °F 30.00 in ENE 3.0 mph 17.0 mph 89 % 0.00 in
13:39 46.7 °F 43.6 °F 30.00 in ENE 4.0 mph 15.0 mph 89 % 0.00 in
13:44 46.7 °F 43.3 °F 30.00 in NNE 3.0 mph 15.0 mph 88 % 0.00 in
13:50 46.7 °F 43.6 °F 30.00 in NNW 3.0 mph 14.0 mph 89 % 0.00 in
13:54 46.7 °F 43.6 °F 30.01 in NE 3.0 mph 12.0 mph 89 % 0.00 in
13:59 46.7 °F 43.3 °F 30.01 in NE 3.0 mph 12.0 mph 88 % 0.00 in
14:04 46.6 °F 43.2 °F 30.01 in NE 2.0 mph 12.0 mph 88 % 0.00 in
14:09 46.6 °F 43.5 °F 30.01 in NE 3.0 mph 15.0 mph 89 % 0.00 in
14:14 46.5 °F 43.1 °F 30.02 in NE 7.0 mph 15.0 mph 88 % 0.00 in
14:19 46.4 °F 43.0 °F 30.02 in NE 3.0 mph 14.0 mph 88 % 0.00 in
14:24 46.4 °F 43.0 °F 30.02 in NNE 2.0 mph 11.0 mph 88 % 0.00 in
14:29 46.3 °F 42.9 °F 30.02 in North 2.0 mph 11.0 mph 88 % 0.00 in
14:35 46.3 °F 42.9 °F 30.02 in NE 5.0 mph 11.0 mph 88 % 0.00 in
14:39 46.2 °F 42.8 °F 30.02 in ENE 7.0 mph 13.0 mph 88 % 0.00 in
14:44 46.1 °F 42.7 °F 30.02 in NNE 6.0 mph 13.0 mph 88 % 0.00 in
14:49 46.0 °F 42.6 °F 30.02 in NE 2.0 mph 13.0 mph 88 % 0.00 in
14:54 46.0 °F 42.6 °F 30.02 in NNE 11.0 mph 16.0 mph 88 % 0.00 in
14:59 46.0 °F 42.6 °F 30.02 in NE 8.0 mph 16.0 mph 88 % 0.01 in
15:04 45.9 °F 42.8 °F 30.02 in NNE 10.0 mph 13.0 mph 89 % 0.01 in
15:09 45.8 °F 42.7 °F 30.02 in NE 7.0 mph 13.0 mph 89 % 0.02 in
15:14 45.7 °F 42.9 °F 30.02 in NNE 12.0 mph 14.0 mph 90 % 0.02 in
15:20 45.7 °F 42.9 °F 30.02 in ENE 4.0 mph 14.0 mph 90 % 0.02 in
15:24 45.6 °F 42.8 °F 30.02 in NW 5.0 mph 16.0 mph 90 % 0.03 in
15:29 45.5 °F 42.7 °F 30.02 in North 3.0 mph 16.0 mph 90 % 0.03 in
15:34 45.5 °F 42.7 °F 30.02 in ENE 4.0 mph 14.0 mph 90 % 0.03 in
15:39 45.5 °F 43.0 °F 30.02 in North 2.0 mph 13.0 mph 91 % 0.04 in
15:44 45.4 °F 42.9 °F 30.02 in NNW 4.0 mph 13.0 mph 91 % 0.04 in
15:49 45.4 °F 42.9 °F 30.01 in North 5.0 mph 11.0 mph 91 % 0.04 in
15:54 45.4 °F 42.9 °F 30.01 in NE 4.0 mph 11.0 mph 91 % 0.04 in
15:59 45.3 °F 42.8 °F 30.02 in NNW 5.0 mph 11.0 mph 91 % 0.03 in
16:04 45.3 °F 42.8 °F 30.02 in NE 3.0 mph 11.0 mph 91 % 0.04 in
16:09 45.3 °F 42.8 °F 30.02 in NW 3.0 mph 13.0 mph 91 % 0.03 in
16:14 45.2 °F 42.7 °F 30.02 in NE 5.0 mph 14.0 mph 91 % 0.03 in
16:19 45.2 °F 42.7 °F 30.02 in NNE 7.0 mph 14.0 mph 91 % 0.04 in
16:24 45.2 °F 43.0 °F 30.02 in NE 4.0 mph 13.0 mph 92 % 0.03 in
16:29 45.2 °F 43.0 °F 30.02 in North 6.0 mph 15.0 mph 92 % 0.04 in
16:34 45.2 °F 43.0 °F 30.02 in NE 3.0 mph 15.0 mph 92 % 0.04 in
16:39 45.1 °F 42.6 °F 30.02 in NNW 4.0 mph 18.0 mph 91 % 0.03 in
16:44 45.2 °F 43.0 °F 30.02 in NNE 7.0 mph 18.0 mph 92 % 0.04 in
16:49 45.2 °F 43.0 °F 30.03 in NNE 9.0 mph 15.0 mph 92 % 0.04 in
16:54 45.2 °F 43.0 °F 30.03 in NNW 8.0 mph 14.0 mph 92 % 0.04 in
16:59 45.2 °F 43.0 °F 30.03 in North 12.0 mph 14.0 mph 92 % 0.05 in
17:04 45.2 °F 43.0 °F 30.03 in NNE 8.0 mph 16.0 mph 92 % 0.04 in
17:09 45.3 °F 43.1 °F 30.03 in NNE 4.0 mph 16.0 mph 92 % 0.04 in
17:14 45.3 °F 43.1 °F 30.03 in North 9.0 mph 13.0 mph 92 % 0.04 in
17:19 45.3 °F 43.1 °F 30.03 in NE 6.0 mph 17.0 mph 92 % 0.03 in
17:24 45.3 °F 42.8 °F 30.03 in NNE 4.0 mph 17.0 mph 91 % 0.02 in
17:29 45.3 °F 43.1 °F 30.03 in NE 6.0 mph 13.0 mph 92 % 0.02 in
17:34 45.4 °F 42.9 °F 30.03 in NNE 10.0 mph 22.0 mph 91 % 0.02 in
17:39 45.4 °F 42.9 °F 30.03 in NNE 5.0 mph 22.0 mph 91 % 0.02 in
17:44 45.4 °F 42.9 °F 30.03 in NE 10.0 mph 15.0 mph 91 % 0.01 in
17:49 45.4 °F 42.9 °F 30.04 in NNE 9.0 mph 17.0 mph 91 % 0.01 in
17:54 45.4 °F 42.9 °F 30.04 in NE 4.0 mph 17.0 mph 91 % 0.00 in
17:59 45.4 °F 42.9 °F 30.04 in NE 5.0 mph 14.0 mph 91 % 0.00 in
18:04 45.5 °F 43.0 °F 30.04 in North 8.0 mph 17.0 mph 91 % 0.00 in
18:09 45.6 °F 43.1 °F 30.04 in NNE 12.0 mph 19.0 mph 91 % 0.00 in
18:14 45.6 °F 42.8 °F 30.04 in North 9.0 mph 19.0 mph 90 % 0.00 in
18:19 45.7 °F 42.9 °F 30.04 in ENE 12.0 mph 19.0 mph 90 % 0.00 in
18:24 45.7 °F 42.9 °F 30.04 in North 11.0 mph 20.0 mph 90 % 0.00 in
18:29 45.8 °F 43.0 °F 30.04 in NNE 6.0 mph 20.0 mph 90 % 0.00 in
18:34 45.8 °F 43.0 °F 30.05 in NNE 3.0 mph 19.0 mph 90 % 0.00 in
18:39 45.8 °F 43.0 °F 30.05 in North 13.0 mph 19.0 mph 90 % 0.00 in
18:44 45.7 °F 42.9 °F 30.05 in NNE 5.0 mph 19.0 mph 90 % 0.00 in
18:49 45.7 °F 42.9 °F 30.05 in North 7.0 mph 17.0 mph 90 % 0.00 in
18:54 45.6 °F 42.8 °F 30.05 in NNW 5.0 mph 17.0 mph 90 % 0.00 in
18:59 45.6 °F 42.8 °F 30.05 in North 13.0 mph 17.0 mph 90 % 0.00 in
19:04 45.6 °F 42.8 °F 30.05 in NNE 9.0 mph 17.0 mph 90 % 0.00 in
19:09 45.7 °F 42.6 °F 30.05 in North 6.0 mph 15.0 mph 89 % 0.00 in
19:14 45.8 °F 42.7 °F 30.06 in NNE 5.0 mph 20.0 mph 89 % 0.00 in
19:19 45.8 °F 42.7 °F 30.06 in NNE 8.0 mph 20.0 mph 89 % 0.00 in
19:24 45.9 °F 42.8 °F 30.06 in NNE 10.0 mph 13.0 mph 89 % 0.00 in
19:29 45.7 °F 42.6 °F 30.06 in NNW 8.0 mph 18.0 mph 89 % 0.00 in
19:34 45.4 °F 42.3 °F 30.06 in NNE 3.0 mph 18.0 mph 89 % 0.00 in
19:39 45.3 °F 42.2 °F 30.07 in ENE 7.0 mph 18.0 mph 89 % 0.00 in
19:44 45.0 °F 42.0 °F 30.07 in NE 4.0 mph 18.0 mph 89 % 0.00 in
19:49 44.9 °F 41.9 °F 30.07 in NE 9.0 mph 16.0 mph 89 % 0.00 in
19:54 44.7 °F 41.7 °F 30.07 in NNE 12.0 mph 16.0 mph 89 % 0.00 in
19:59 44.6 °F 41.6 °F 30.07 in NE 6.0 mph 20.0 mph 89 % 0.00 in
20:04 44.6 °F 41.6 °F 30.07 in NNE 4.0 mph 20.0 mph 89 % 0.00 in
20:09 44.6 °F 41.6 °F 30.07 in North 3.0 mph 17.0 mph 89 % 0.00 in
20:14 44.6 °F 41.6 °F 30.07 in NE 10.0 mph 20.0 mph 89 % 0.00 in
20:19 44.6 °F 41.6 °F 30.07 in NNW 9.0 mph 20.0 mph 89 % 0.00 in
20:24 44.6 °F 41.6 °F 30.08 in NE 7.0 mph 15.0 mph 89 % 0.00 in
20:29 44.6 °F 41.6 °F 30.08 in NNW 10.0 mph 19.0 mph 89 % 0.00 in
20:34 44.6 °F 41.6 °F 30.08 in NNE 3.0 mph 19.0 mph 89 % 0.00 in
20:39 44.7 °F 41.7 °F 30.08 in NE 7.0 mph 20.0 mph 89 % 0.00 in
20:44 44.7 °F 41.7 °F 30.09 in NNW 2.0 mph 20.0 mph 89 % 0.00 in
20:49 44.7 °F 41.4 °F 30.09 in NE 9.0 mph 17.0 mph 88 % 0.00 in
20:54 44.7 °F 41.4 °F 30.09 in NNE 2.0 mph 17.0 mph 88 % 0.00 in
20:59 44.6 °F 41.3 °F 30.09 in NNW 6.0 mph 17.0 mph 88 % 0.00 in
21:04 44.6 °F 41.3 °F 30.09 in North 1.0 mph 17.0 mph 88 % 0.00 in
21:09 44.6 °F 41.3 °F 30.09 in NNE 8.0 mph 15.0 mph 88 % 0.00 in
21:14 44.6 °F 41.3 °F 30.09 in North 8.0 mph 15.0 mph 88 % 0.00 in
21:19 44.6 °F 41.3 °F 30.10 in NNE 12.0 mph 15.0 mph 88 % 0.00 in
21:24 44.6 °F 41.3 °F 30.10 in NNW 3.0 mph 14.0 mph 88 % 0.00 in
21:29 44.6 °F 41.3 °F 30.10 in North 10.0 mph 14.0 mph 88 % 0.00 in
21:34 44.6 °F 41.3 °F 30.10 in NNW 5.0 mph 14.0 mph 88 % 0.00 in
21:39 44.5 °F 41.2 °F 30.11 in NNW 10.0 mph 18.0 mph 88 % 0.00 in
21:44 44.5 °F 41.2 °F 30.11 in NW 9.0 mph 20.0 mph 88 % 0.00 in
21:49 44.5 °F 41.2 °F 30.11 in NNW 5.0 mph 20.0 mph 88 % 0.00 in
21:54 44.4 °F 41.1 °F 30.11 in NNE 5.0 mph 16.0 mph 88 % 0.00 in
21:59 44.3 °F 41.0 °F 30.11 in NNW 4.0 mph 14.0 mph 88 % 0.00 in
22:04 44.2 °F 40.6 °F 30.11 in North 2.0 mph 14.0 mph 87 % 0.00 in
22:09 44.2 °F 40.6 °F 30.11 in NNW 3.0 mph 14.0 mph 87 % 0.00 in
22:14 44.0 °F 40.4 °F 30.11 in NW 4.0 mph 14.0 mph 87 % 0.00 in
22:19 43.9 °F 40.3 °F 30.11 in NNW 4.0 mph 17.0 mph 87 % 0.00 in
22:24 43.8 °F 40.2 °F 30.12 in NNE 4.0 mph 17.0 mph 87 % 0.00 in
22:29 43.7 °F 40.1 °F 30.12 in North 3.0 mph 16.0 mph 87 % 0.00 in
22:34 43.6 °F 40.3 °F 30.12 in North 3.0 mph 11.0 mph 88 % 0.00 in
22:39 43.5 °F 40.2 °F 30.12 in North 5.0 mph 10.0 mph 88 % 0.00 in
22:44 43.3 °F 40.0 °F 30.12 in NNE 8.0 mph 12.0 mph 88 % 0.00 in
22:49 43.3 °F 40.0 °F 30.12 in North 4.0 mph 12.0 mph 88 % 0.00 in
22:55 43.3 °F 40.0 °F 30.12 in NNE 3.0 mph 11.0 mph 88 % 0.00 in
22:59 43.3 °F 39.7 °F 30.12 in NNW 8.0 mph 10.0 mph 87 % 0.00 in
23:04 43.3 °F 39.7 °F 30.12 in NE 4.0 mph 9.0 mph 87 % 0.00 in
23:09 43.2 °F 39.9 °F 30.12 in NE 2.0 mph 9.0 mph 88 % 0.00 in
23:14 43.2 °F 39.6 °F 30.12 in NE 3.0 mph 9.0 mph 87 % 0.00 in
23:19 43.2 °F 39.6 °F 30.12 in NE 1.0 mph 10.0 mph 87 % 0.00 in
Edina, Minnesota
Compliments of Weather Underground - 4 mb

Script developed by  Jim McMurry - jmcmurry@mwt.net Adapted for the template by  Wim van der Kuil - Leuven-Template.eu

You find our weather info also at:

Weather Underground

Midwestern Weather Network

Citizen Weather Observer Program (CWOP)

HAMweather, WeatherForYou, PWS Weather

Equipment we use:

Weather-station
Davis VP2

Weather-program
Cumulus

Davis VP2

Cumulus